Time;durP1;ratioP1;P1;durP2;ratioP2;P2;SDS_P1;SDS_P2;PMS_P1;PMS_P2;Temp;Humidity;BMP_temperature;BMP_pressure;BME280_temperature;BME280_humidity;BME280_pressure;Samples;Min_cycle;Max_cycle;Signal;HPM_P1;HPM_P2
2022/12/04 00:01:38;;;;;;;;;;;-0.50;99.90;;;;;;5051896;28;19916;-57
2022/12/04 00:04:05;;;;;;;;;;;-0.50;99.90;;;;;;5053000;28;19912;-56
2022/12/04 00:06:32;;;;;;;;;;;-0.50;99.90;;;;;;5058689;28;19917;-56
2022/12/04 00:08:58;;;;;;;;;;;-0.50;99.90;;;;;;5057456;28;19917;-57
2022/12/04 00:11:25;;;;;;;;;;;-0.60;99.90;;;;;;5055151;28;20417;-56
2022/12/04 00:13:51;;;;;;;;;;;-0.60;99.90;;;;;;5048864;28;20303;-56
2022/12/04 00:16:18;;;;;;;;;;;-0.60;99.90;;;;;;5060392;28;19909;-57
2022/12/04 00:18:44;;;;;;;;;;;-0.50;99.90;;;;;;5050705;28;19917;-57
2022/12/04 00:21:10;;;;;;;;;;;-0.50;99.90;;;;;;5056932;28;19916;-57
2022/12/04 00:23:36;;;;;;;;;;;-0.50;99.90;;;;;;5053806;28;19927;-56
2022/12/04 00:26:03;;;;;;;;;;;-0.50;99.90;;;;;;5061612;28;20004;-56
2022/12/04 00:28:28;;;;;;;;;;;-0.50;99.90;;;;;;5050088;28;19913;-55
2022/12/04 00:30:54;;;;;;;;;;;-0.60;99.90;;;;;;5047867;28;20008;-56
2022/12/04 00:33:20;;;;;;;;;;;-0.50;99.90;;;;;;5058196;28;19921;-55
2022/12/04 00:35:45;;;;;;;;;;;-0.50;99.90;;;;;;5058706;28;19957;-57
2022/12/04 00:38:11;;;;;;;;;;;-0.60;99.90;;;;;;5057026;28;20466;-55
2022/12/04 00:40:37;;;;;;;;;;;-0.60;99.90;;;;;;5057276;28;19924;-54
2022/12/04 00:43:02;;;;;;;;;;;-0.60;99.90;;;;;;5051981;28;20295;-55
2022/12/04 00:45:28;;;;;;;;;;;-0.60;99.90;;;;;;5055015;28;20441;-54
2022/12/04 00:47:54;;;;;;;;;;;-0.60;99.90;;;;;;5058028;28;19916;-57
2022/12/04 00:50:19;;;;;;;;;;;-0.60;99.90;;;;;;5060652;28;19909;-54
2022/12/04 00:52:45;;;;;;;;;;;-0.70;99.90;;;;;;5057195;28;19915;-56
2022/12/04 00:55:10;;;;;;;;;;;-0.60;99.90;;;;;;5063250;28;20391;-55
2022/12/04 00:57:36;;;;;;;;;;;-0.60;99.90;;;;;;5056006;28;19955;-55
2022/12/04 01:00:03;;;;;;;;;;;-0.60;99.90;;;;;;5065142;28;19935;-56
2022/12/04 01:02:28;;;;;;;;;;;-0.60;99.90;;;;;;5057116;28;19952;-56
2022/12/04 01:04:54;;;;;;;;;;;-0.60;99.90;;;;;;5057642;28;20359;-55
2022/12/04 01:07:19;;;;;;;;;;;-0.50;99.90;;;;;;5062998;28;20391;-54
2022/12/04 01:09:45;;;;;;;;;;;-0.60;99.90;;;;;;5057336;28;20357;-58
2022/12/04 01:12:11;;;;;;;;;;;-0.60;99.90;;;;;;5062884;28;19924;-56
2022/12/04 01:14:36;;;;;;;;;;;-0.60;99.90;;;;;;5047298;28;20340;-55
2022/12/04 01:17:02;;;;;;;;;;;-0.60;99.90;;;;;;5059600;28;19912;-53
2022/12/04 01:19:27;;;;;;;;;;;-0.60;99.90;;;;;;5045716;28;19969;-55
2022/12/04 01:21:53;;;;;;;;;;;-0.60;99.90;;;;;;5067212;22;19924;-75
2022/12/04 01:24:18;;;;;;;;;;;-0.60;99.90;;;;;;5051031;28;19919;-78
2022/12/04 01:26:44;;;;;;;;;;;-0.60;99.90;;;;;;5033173;28;20484;-76
2022/12/04 01:29:09;;;;;;;;;;;-0.60;99.90;;;;;;5031063;28;19915;-76
2022/12/04 01:31:34;;;;;;;;;;;-0.50;99.90;;;;;;5035548;28;20009;-76
2022/12/04 01:34:00;;;;;;;;;;;-0.60;99.90;;;;;;5015700;28;19909;-77
2022/12/04 01:36:27;;;;;;;;;;;-0.60;99.90;;;;;;5033823;28;19964;-77
2022/12/04 01:38:53;;;;;;;;;;;-0.50;99.90;;;;;;5033737;28;19921;-76
2022/12/04 01:41:20;;;;;;;;;;;-0.50;99.90;;;;;;5039294;28;19932;-76
2022/12/04 01:44:05;;;;;;;;;;;-0.60;99.90;;;;;;5020703;28;20007;-75
2022/12/04 01:46:30;;;;;;;;;;;-0.60;99.90;;;;;;5047196;28;19925;-75
2022/12/04 01:48:56;;;;;;;;;;;-0.60;99.90;;;;;;5024979;28;20004;-75
2022/12/04 01:51:24;;;;;;;;;;;-0.60;99.90;;;;;;5046994;28;19912;-76
2022/12/04 01:53:51;;;;;;;;;;;-0.70;99.90;;;;;;5037133;28;19959;-76
2022/12/04 01:56:17;;;;;;;;;;;-0.70;99.90;;;;;;5037666;28;20450;-75
2022/12/04 01:58:45;;;;;;;;;;;-0.70;99.90;;;;;;5022725;28;19963;-76
2022/12/04 02:01:10;;;;;;;;;;;-0.60;99.90;;;;;;5036989;28;19913;-76
2022/12/04 02:03:37;;;;;;;;;;;-0.60;99.90;;;;;;5033621;28;19967;-76
2022/12/04 02:06:02;;;;;;;;;;;-0.60;99.90;;;;;;5032032;28;19909;-76
2022/12/04 02:08:28;;;;;;;;;;;-0.60;99.90;;;;;;5043174;28;20000;-76
2022/12/04 02:11:03;;;;;;;;;;;-0.70;99.90;;;;;;5041766;28;19909;-76
2022/12/04 02:13:35;;;;;;;;;;;-0.70;99.90;;;;;;5044097;28;19915;-75
2022/12/04 02:16:06;;;;;;;;;;;-0.60;99.90;;;;;;5035669;28;19910;-76
2022/12/04 02:18:50;;;;;;;;;;;-0.60;99.90;;;;;;5038494;28;19913;-76
2022/12/04 02:21:22;;;;;;;;;;;-0.60;99.90;;;;;;5026721;28;19921;-76
2022/12/04 02:24:06;;;;;;;;;;;-0.70;99.90;;;;;;5041781;28;20050;-75
2022/12/04 02:26:38;;;;;;;;;;;-0.70;99.90;;;;;;5038777;28;20372;-76
2022/12/04 02:29:10;;;;;;;;;;;-0.70;99.90;;;;;;5029417;28;19934;-75
2022/12/04 02:31:47;;;;;;;;;;;-0.60;99.90;;;;;;5022179;28;19916;-76
2022/12/04 02:36:46;;;;;;;;;;;-0.60;99.90;;;;;;5057867;28;20307;-65
2022/12/04 02:39:17;;;;;;;;;;;-0.60;99.90;;;;;;5055278;28;19924;-64
2022/12/04 02:41:45;;;;;;;;;;;-0.60;99.90;;;;;;5069975;28;19931;-65
2022/12/04 02:44:14;;;;;;;;;;;-0.60;99.90;;;;;;5077343;28;19943;-66
2022/12/04 02:46:42;;;;;;;;;;;-0.50;99.90;;;;;;5082787;28;19908;-65
2022/12/04 02:49:11;;;;;;;;;;;-0.60;99.90;;;;;;5079247;28;20394;-65
2022/12/04 02:51:39;;;;;;;;;;;-0.60;99.90;;;;;;5079886;28;19916;-65
2022/12/04 02:54:08;;;;;;;;;;;-0.60;99.90;;;;;;5066328;28;19913;-65
2022/12/04 02:56:36;;;;;;;;;;;-0.50;99.90;;;;;;5082691;28;19908;-65
2022/12/04 02:59:04;;;;;;;;;;;-0.60;99.90;;;;;;5082014;28;19912;-65
2022/12/04 03:01:34;;;;;;;;;;;-0.60;99.90;;;;;;5076829;28;19915;-65
2022/12/04 03:04:03;;;;;;;;;;;-0.60;99.90;;;;;;5081652;28;19953;-65
2022/12/04 03:06:31;;;;;;;;;;;-0.60;99.90;;;;;;5079406;28;20290;-65
2022/12/04 03:09:16;;;;;;;;;;;-0.60;99.90;;;;;;5081709;28;20344;-64
2022/12/04 03:11:45;;;;;;;;;;;-0.60;99.90;;;;;;5079896;28;19963;-64
2022/12/04 03:14:16;;;;;;;;;;;-0.60;99.90;;;;;;5067559;28;20309;-64
2022/12/04 03:16:42;;;;;;;;;;;-0.60;99.90;;;;;;5076105;28;19970;-64
2022/12/04 03:19:26;;;;;;;;;;;-0.60;99.90;;;;;;5066297;28;20015;-65
2022/12/04 03:21:56;;;;;;;;;;;-0.60;99.90;;;;;;5078997;28;19973;-64
2022/12/04 03:24:23;;;;;;;;;;;-0.60;99.90;;;;;;5087575;28;19965;-65
2022/12/04 03:26:59;;;;;;;;;;;-0.60;99.90;;;;;;5078703;28;19916;-64
2022/12/04 03:29:37;;;;;;;;;;;-0.60;99.90;;;;;;5061540;28;19967;-65
2022/12/04 03:32:06;;;;;;;;;;;-0.50;99.90;;;;;;5072675;28;19909;-65
2022/12/04 03:34:34;;;;;;;;;;;-0.50;99.90;;;;;;5073763;28;20003;-65
2022/12/04 03:37:05;;;;;;;;;;;-0.60;99.90;;;;;;5079582;28;19912;-65
2022/12/04 03:39:36;;;;;;;;;;;-0.60;99.90;;;;;;5070996;28;19912;-65
2022/12/04 03:42:02;;;;;;;;;;;-0.60;99.90;;;;;;5080054;28;19915;-64
2022/12/04 03:44:39;;;;;;;;;;;-0.60;99.90;;;;;;5067729;28;19920;-64
2022/12/04 03:47:16;;;;;;;;;;;-0.60;99.90;;;;;;5078819;28;19922;-65
2022/12/04 03:49:56;;;;;;;;;;;-0.60;99.90;;;;;;5074061;28;19919;-65
2022/12/04 03:52:27;;;;;;;;;;;-0.60;99.90;;;;;;5078220;28;19912;-65
2022/12/04 03:55:13;;;;;;;;;;;-0.60;99.90;;;;;;5063786;28;19947;-64
2022/12/04 03:57:41;;;;;;;;;;;-0.60;99.90;;;;;;5062235;28;19920;-65
2022/12/04 04:00:09;;;;;;;;;;;-0.60;99.90;;;;;;5076391;28;19920;-65
2022/12/04 04:02:40;;;;;;;;;;;-0.60;99.90;;;;;;5077913;28;20051;-64
2022/12/04 04:05:07;;;;;;;;;;;-0.60;99.90;;;;;;5084043;28;19958;-66
2022/12/04 04:07:37;;;;;;;;;;;-0.60;99.90;;;;;;5077508;28;20003;-66
2022/12/04 04:10:06;;;;;;;;;;;-0.60;99.90;;;;;;5079349;28;19912;-64
2022/12/04 04:12:36;;;;;;;;;;;-0.60;99.90;;;;;;5079698;28;20363;-64
2022/12/04 04:26:11;;;;;;;;;;;-0.60;99.90;;;;;;5080793;28;19939;-64
2022/12/04 04:28:38;;;;;;;;;;;-0.60;99.90;;;;;;5080833;28;20003;-65
2022/12/04 04:31:30;;;;;;;;;;;-0.60;99.90;;;;;;5067754;28;20286;-65
2022/12/04 04:34:03;;;;;;;;;;;-0.60;99.90;;;;;;5050027;28;20399;-64
2022/12/04 04:36:38;;;;;;;;;;;-0.60;99.90;;;;;;5076311;28;20396;-64
2022/12/04 04:39:25;;;;;;;;;;;-0.60;99.90;;;;;;5078351;28;19916;-65
2022/12/04 04:41:56;;;;;;;;;;;-0.60;99.90;;;;;;5074424;28;19924;-65
2022/12/04 04:44:28;;;;;;;;;;;-0.60;99.90;;;;;;5058378;28;20264;-64
2022/12/04 04:46:56;;;;;;;;;;;-0.60;99.90;;;;;;5074896;28;20300;-65
2022/12/04 04:49:24;;;;;;;;;;;-0.60;99.90;;;;;;5074647;28;19908;-65
2022/12/04 04:51:50;;;;;;;;;;;-0.60;99.90;;;;;;5077291;28;19919;-64
2022/12/04 04:54:16;;;;;;;;;;;-0.60;99.90;;;;;;5072593;28;19995;-65
2022/12/04 04:56:43;;;;;;;;;;;-0.60;99.90;;;;;;5080898;28;19916;-65
2022/12/04 04:59:08;;;;;;;;;;;-0.60;99.90;;;;;;5079552;28;19959;-65
2022/12/04 05:01:35;;;;;;;;;;;-0.60;99.90;;;;;;5074469;28;20005;-65
2022/12/04 05:04:01;;;;;;;;;;;-0.70;99.90;;;;;;5069384;28;19908;-64
2022/12/04 05:06:27;;;;;;;;;;;-0.70;99.90;;;;;;5072220;28;19955;-64
2022/12/04 05:08:52;;;;;;;;;;;-0.70;99.90;;;;;;5079414;28;20001;-64
2022/12/04 05:11:18;;;;;;;;;;;-0.70;99.90;;;;;;5084113;28;19912;-64
2022/12/04 05:13:43;;;;;;;;;;;-0.60;99.90;;;;;;5084567;28;19918;-64
2022/12/04 05:16:10;;;;;;;;;;;-0.60;99.90;;;;;;5083120;28;19919;-64
2022/12/04 05:18:36;;;;;;;;;;;-0.60;99.90;;;;;;5083776;28;19999;-64
2022/12/04 05:21:05;;;;;;;;;;;-0.60;99.90;;;;;;5082061;28;20007;-64
2022/12/04 05:23:30;;;;;;;;;;;-0.60;99.90;;;;;;5080472;28;19965;-64
2022/12/04 05:26:03;;;;;;;;;;;-0.50;99.90;;;;;;5083918;28;19916;-64
2022/12/04 05:28:29;;;;;;;;;;;-0.50;99.90;;;;;;5083884;28;20007;-64
2022/12/04 05:30:55;;;;;;;;;;;-0.50;99.90;;;;;;5076873;28;20018;-64
2022/12/04 05:33:21;;;;;;;;;;;-0.50;99.90;;;;;;5073502;28;19973;-64
2022/12/04 05:35:54;;;;;;;;;;;-0.50;99.90;;;;;;5084361;28;20007;-64
2022/12/04 05:38:20;;;;;;;;;;;-0.50;99.90;;;;;;5079682;28;20371;-64
2022/12/04 05:40:45;;;;;;;;;;;-0.50;99.90;;;;;;5081018;28;19968;-64
2022/12/04 05:43:11;;;;;;;;;;;-0.50;99.90;;;;;;5076035;28;19920;-64
2022/12/04 05:45:36;;;;;;;;;;;-0.50;99.90;;;;;;5083634;28;20454;-64
2022/12/04 05:48:02;;;;;;;;;;;-0.50;99.90;;;;;;5075434;28;19913;-64
2022/12/04 05:50:27;;;;;;;;;;;-0.50;99.90;;;;;;5084098;28;19932;-64
2022/12/04 05:52:53;;;;;;;;;;;-0.50;99.90;;;;;;5082916;28;19961;-64
2022/12/04 05:55:18;;;;;;;;;;;-0.50;99.90;;;;;;5080649;28;19943;-64
2022/12/04 05:57:44;;;;;;;;;;;-0.50;99.90;;;;;;5083564;28;19919;-64
2022/12/04 06:00:09;;;;;;;;;;;-0.50;99.90;;;;;;5080774;28;20085;-65
2022/12/04 06:02:35;;;;;;;;;;;-0.50;99.90;;;;;;5079456;28;19920;-63
2022/12/04 06:05:00;;;;;;;;;;;-0.50;99.90;;;;;;5080887;28;20011;-64
2022/12/04 06:07:26;;;;;;;;;;;-0.50;99.90;;;;;;5079351;28;20428;-64
2022/12/04 06:09:53;;;;;;;;;;;-0.50;99.90;;;;;;5077246;28;20287;-64
2022/12/04 06:12:18;;;;;;;;;;;-0.50;99.90;;;;;;5080442;28;20366;-64
2022/12/04 06:14:44;;;;;;;;;;;-0.50;99.90;;;;;;5084266;28;20009;-64
2022/12/04 06:17:09;;;;;;;;;;;-0.50;99.90;;;;;;5080478;28;19912;-63
2022/12/04 06:19:35;;;;;;;;;;;-0.50;99.90;;;;;;5083728;28;20370;-64
2022/12/04 06:22:00;;;;;;;;;;;-0.50;99.90;;;;;;5084537;28;19992;-65
2022/12/04 06:24:26;;;;;;;;;;;-0.50;99.90;;;;;;5076086;28;20298;-63
2022/12/04 06:26:55;;;;;;;;;;;-0.50;99.90;;;;;;5080838;28;19960;-64
2022/12/04 06:29:21;;;;;;;;;;;-0.50;99.90;;;;;;5071344;28;19913;-64
2022/12/04 06:31:46;;;;;;;;;;;-0.50;99.90;;;;;;5079296;28;19985;-64
2022/12/04 06:34:11;;;;;;;;;;;-0.50;99.90;;;;;;5081672;28;19916;-64
2022/12/04 06:36:37;;;;;;;;;;;-0.40;99.90;;;;;;5079474;28;20327;-64
2022/12/04 06:39:03;;;;;;;;;;;-0.40;99.90;;;;;;5081659;28;20010;-64
2022/12/04 06:41:28;;;;;;;;;;;-0.40;99.90;;;;;;5075267;28;19927;-64
2022/12/04 06:43:54;;;;;;;;;;;-0.40;99.90;;;;;;5078937;28;20285;-64
2022/12/04 06:46:21;;;;;;;;;;;-0.40;99.90;;;;;;5073341;28;19908;-64
2022/12/04 06:48:46;;;;;;;;;;;-0.40;99.90;;;;;;5065910;28;20019;-64
2022/12/04 06:51:13;;;;;;;;;;;-0.40;99.90;;;;;;5065337;28;19988;-65
2022/12/04 06:53:39;;;;;;;;;;;-0.40;99.90;;;;;;5078915;28;19913;-64
2022/12/04 06:56:08;;;;;;;;;;;-0.40;99.90;;;;;;5087104;28;19909;-63
2022/12/04 06:58:33;;;;;;;;;;;-0.40;99.90;;;;;;5060638;28;20371;-65
2022/12/04 07:01:04;;;;;;;;;;;-0.40;99.90;;;;;;5080228;28;19995;-64
2022/12/04 07:03:29;;;;;;;;;;;-0.40;99.90;;;;;;5079453;28;19916;-64
2022/12/04 07:05:55;;;;;;;;;;;-0.40;99.90;;;;;;5076604;28;20205;-64
2022/12/04 07:08:20;;;;;;;;;;;-0.40;99.90;;;;;;5085253;28;19966;-64
2022/12/04 07:10:46;;;;;;;;;;;-0.40;99.90;;;;;;5071940;28;19913;-64
2022/12/04 07:13:11;;;;;;;;;;;-0.30;99.90;;;;;;5071969;28;20338;-64
2022/12/04 07:15:37;;;;;;;;;;;-0.30;99.90;;;;;;5079281;28;20386;-63
2022/12/04 07:18:03;;;;;;;;;;;-0.30;99.90;;;;;;5070809;28;19958;-64
2022/12/04 07:20:29;;;;;;;;;;;-0.30;99.90;;;;;;5081714;28;19920;-65
2022/12/04 07:22:54;;;;;;;;;;;-0.30;99.90;;;;;;5059309;22;19932;-57
2022/12/04 07:25:20;;;;;;;;;;;-0.20;99.90;;;;;;5040813;28;20310;-55
2022/12/04 07:27:45;;;;;;;;;;;-0.30;99.90;;;;;;5043571;28;19920;-55
2022/12/04 07:30:11;;;;;;;;;;;-0.30;99.90;;;;;;5041303;28;19917;-58
2022/12/04 07:32:36;;;;;;;;;;;-0.20;99.90;;;;;;5029660;28;19920;-54
2022/12/04 07:35:03;;;;;;;;;;;-0.30;99.90;;;;;;5026241;28;19979;-54
2022/12/04 07:37:28;;;;;;;;;;;-0.20;99.90;;;;;;5010896;28;19914;-55
2022/12/04 07:39:54;;;;;;;;;;;-0.20;99.90;;;;;;5012678;28;20263;-55
2022/12/04 07:42:19;;;;;;;;;;;-0.20;99.90;;;;;;5027340;28;19909;-59
2022/12/04 07:44:45;;;;;;;;;;;-0.10;99.90;;;;;;5024355;28;20341;-56
2022/12/04 07:47:11;;;;;;;;;;;-0.10;99.90;;;;;;5026770;28;20034;-56
2022/12/04 07:49:36;;;;;;;;;;;-0.10;99.90;;;;;;5022019;28;19971;-56
2022/12/04 07:52:02;;;;;;;;;;;-0.10;99.90;;;;;;5025296;28;19920;-58
2022/12/04 07:54:27;;;;;;;;;;;-0.10;99.90;;;;;;5028850;28;19909;-56
2022/12/04 07:56:53;;;;;;;;;;;-0.10;99.90;;;;;;5025299;28;20387;-55
2022/12/04 07:59:18;;;;;;;;;;;-0.10;99.90;;;;;;5027511;28;20272;-57
2022/12/04 08:01:43;;;;;;;;;;;-0.10;99.90;;;;;;5029622;28;19951;-56
2022/12/04 08:04:09;;;;;;;;;;;-0.10;99.90;;;;;;5026552;28;20218;-55
2022/12/04 08:06:36;;;;;;;;;;;-0.10;99.90;;;;;;5013440;28;19968;-56
2022/12/04 08:09:02;;;;;;;;;;;-0.10;99.90;;;;;;5017611;28;19915;-56
2022/12/04 08:11:27;;;;;;;;;;;-0.10;99.90;;;;;;5016590;28;19914;-56
2022/12/04 08:13:54;;;;;;;;;;;0.00;99.90;;;;;;5027849;28;19914;-55
2022/12/04 08:16:19;;;;;;;;;;;0.00;99.90;;;;;;5026850;28;20314;-57
2022/12/04 08:18:47;;;;;;;;;;;0.00;99.90;;;;;;5021011;28;19924;-53
2022/12/04 08:21:14;;;;;;;;;;;0.10;99.90;;;;;;5026016;28;19909;-56
2022/12/04 08:23:40;;;;;;;;;;;0.10;99.90;;;;;;5026593;28;19971;-52
2022/12/04 08:26:06;;;;;;;;;;;0.10;99.90;;;;;;5017155;28;19914;-56
2022/12/04 08:28:32;;;;;;;;;;;0.10;99.90;;;;;;5018060;28;19920;-55
2022/12/04 08:31:02;;;;;;;;;;;0.20;99.90;;;;;;5018937;28;20446;-55
2022/12/04 08:33:27;;;;;;;;;;;0.20;99.90;;;;;;5028830;28;20028;-57
2022/12/04 08:35:53;;;;;;;;;;;0.20;99.90;;;;;;5024622;28;19932;-58
2022/12/04 08:38:18;;;;;;;;;;;0.20;99.90;;;;;;5031639;28;19909;-54
2022/12/04 08:40:43;;;;;;;;;;;0.20;99.90;;;;;;5029335;28;19964;-57
2022/12/04 08:43:09;;;;;;;;;;;0.20;99.90;;;;;;5030652;28;19909;-58
2022/12/04 08:45:34;;;;;;;;;;;0.20;99.90;;;;;;5029537;28;19924;-53
2022/12/04 08:48:01;;;;;;;;;;;0.20;99.90;;;;;;5028770;28;19956;-53
2022/12/04 08:50:26;;;;;;;;;;;0.30;99.90;;;;;;5028210;28;19959;-55
2022/12/04 08:52:51;;;;;;;;;;;0.30;99.90;;;;;;5028527;28;19945;-55
2022/12/04 08:55:17;;;;;;;;;;;0.30;99.90;;;;;;5026692;28;19924;-56
2022/12/04 08:57:42;;;;;;;;;;;0.40;99.90;;;;;;5028334;28;19963;-56
2022/12/04 09:00:08;;;;;;;;;;;0.40;99.90;;;;;;5024003;28;19960;-56
2022/12/04 09:02:33;;;;;;;;;;;0.40;99.90;;;;;;5031428;28;20402;-56
2022/12/04 09:04:59;;;;;;;;;;;0.40;99.90;;;;;;5023999;28;19913;-55
2022/12/04 09:07:24;;;;;;;;;;;0.40;99.90;;;;;;5033072;28;19909;-56
2022/12/04 09:09:50;;;;;;;;;;;0.40;99.90;;;;;;5025505;28;19913;-57
2022/12/04 09:12:15;;;;;;;;;;;0.40;99.90;;;;;;5030616;28;19909;-56
2022/12/04 09:14:41;;;;;;;;;;;0.40;99.90;;;;;;5022003;28;19919;-51
2022/12/04 09:17:06;;;;;;;;;;;0.40;99.90;;;;;;5029887;28;20522;-57
2022/12/04 09:19:34;;;;;;;;;;;0.50;99.90;;;;;;5031276;28;19921;-55
2022/12/04 09:21:59;;;;;;;;;;;0.50;99.90;;;;;;5027416;28;20367;-57
2022/12/04 09:24:25;;;;;;;;;;;0.50;99.90;;;;;;5029163;28;19956;-52
2022/12/04 09:26:50;;;;;;;;;;;0.60;99.90;;;;;;5032678;28;20268;-56
2022/12/04 09:29:16;;;;;;;;;;;0.60;99.90;;;;;;5014711;28;19919;-56
2022/12/04 09:31:41;;;;;;;;;;;0.60;99.90;;;;;;5031746;28;19909;-54
2022/12/04 09:34:07;;;;;;;;;;;0.70;99.90;;;;;;5029215;28;19964;-56
2022/12/04 09:36:32;;;;;;;;;;;0.70;99.90;;;;;;5030645;28;19924;-56
2022/12/04 09:38:57;;;;;;;;;;;0.70;99.90;;;;;;5029218;28;20176;-54
2022/12/04 09:41:29;;;;;;;;;;;0.80;99.90;;;;;;5029489;28;19913;-59
2022/12/04 09:44:01;;;;;;;;;;;0.90;99.90;;;;;;5029380;28;19943;-57
2022/12/04 09:46:33;;;;;;;;;;;0.80;99.90;;;;;;5026978;28;19909;-60
2022/12/04 09:49:01;;;;;;;;;;;0.90;99.90;;;;;;5028075;28;19948;-57
2022/12/04 09:51:27;;;;;;;;;;;0.90;99.90;;;;;;5027718;28;19931;-58
2022/12/04 09:54:01;;;;;;;;;;;0.90;99.90;;;;;;5025072;28;19925;-58
2022/12/04 09:56:28;;;;;;;;;;;1.00;99.90;;;;;;5019664;28;19913;-60
2022/12/04 09:58:57;;;;;;;;;;;1.00;99.90;;;;;;5027541;28;20371;-57
2022/12/04 10:01:24;;;;;;;;;;;1.00;99.90;;;;;;5016253;28;20339;-55
2022/12/04 10:03:51;;;;;;;;;;;1.10;99.90;;;;;;5023501;28;19913;-55
2022/12/04 10:06:23;;;;;;;;;;;1.10;99.90;;;;;;5016011;28;19909;-54
2022/12/04 10:08:52;;;;;;;;;;;1.10;99.90;;;;;;5019075;28;20459;-53
2022/12/04 10:11:28;;;;;;;;;;;1.10;99.90;;;;;;5015775;28;19909;-59
2022/12/04 10:14:09;;;;;;;;;;;1.10;99.90;;;;;;5018978;28;20003;-55
2022/12/04 10:16:42;;;;;;;;;;;1.20;99.90;;;;;;5017025;28;19913;-56
2022/12/04 10:19:28;;;;;;;;;;;1.20;99.90;;;;;;5014865;28;20159;-58
2022/12/04 10:22:03;;;;;;;;;;;1.20;99.90;;;;;;5024163;28;19913;-59
2022/12/04 10:24:39;;;;;;;;;;;1.20;99.90;;;;;;5013039;28;20039;-58
2022/12/04 10:27:09;;;;;;;;;;;1.20;99.90;;;;;;5029576;28;20315;-57
2022/12/04 10:29:36;;;;;;;;;;;1.20;99.90;;;;;;5007850;28;19921;-55
2022/12/04 10:32:14;;;;;;;;;;;1.20;99.90;;;;;;5029374;28;19909;-53
2022/12/04 10:34:39;;;;;;;;;;;1.30;99.90;;;;;;5017029;28;19960;-57
2022/12/04 10:37:08;;;;;;;;;;;1.40;99.90;;;;;;5029950;28;19960;-58
2022/12/04 10:39:36;;;;;;;;;;;1.30;99.90;;;;;;5013106;28;19939;-55
2022/12/04 10:42:13;;;;;;;;;;;1.40;99.90;;;;;;5019203;28;20261;-54
2022/12/04 10:44:38;;;;;;;;;;;1.40;99.90;;;;;;5017066;28;19918;-57
2022/12/04 10:47:05;;;;;;;;;;;1.50;99.90;;;;;;5023164;28;19916;-56
2022/12/04 10:49:33;;;;;;;;;;;1.50;99.90;;;;;;5023824;28;19913;-55
2022/12/04 10:51:58;;;;;;;;;;;1.50;99.90;;;;;;5021258;28;20157;-55
2022/12/04 10:54:24;;;;;;;;;;;1.60;99.90;;;;;;5024648;28;20391;-55
2022/12/04 10:56:56;;;;;;;;;;;1.50;99.90;;;;;;5021934;28;20233;-58
2022/12/04 10:59:22;;;;;;;;;;;1.60;99.90;;;;;;5015203;28;19913;-53
2022/12/04 11:01:49;;;;;;;;;;;1.50;99.90;;;;;;5013380;28;19960;-58
2022/12/04 11:04:19;;;;;;;;;;;1.60;99.90;;;;;;5022913;28;19920;-55
2022/12/04 11:06:45;;;;;;;;;;;1.50;99.90;;;;;;5021304;28;20008;-55
2022/12/04 11:09:19;;;;;;;;;;;1.60;99.90;;;;;;5021611;28;20008;-59
2022/12/04 11:11:44;;;;;;;;;;;1.60;99.90;;;;;;5017674;28;19922;-56
2022/12/04 11:14:14;;;;;;;;;;;1.60;99.90;;;;;;5025709;28;19916;-58
2022/12/04 11:16:43;;;;;;;;;;;1.60;99.90;;;;;;5016094;28;19913;-59
2022/12/04 11:19:19;;;;;;;;;;;1.60;99.90;;;;;;5013075;28;19924;-57
2022/12/04 11:21:45;;;;;;;;;;;1.70;99.90;;;;;;5022029;28;19920;-55
2022/12/04 11:24:18;;;;;;;;;;;1.70;99.90;;;;;;5025443;28;19918;-54
2022/12/04 11:26:45;;;;;;;;;;;1.70;99.90;;;;;;5021427;28;19933;-58
2022/12/04 11:29:12;;;;;;;;;;;1.70;99.90;;;;;;5026961;28;19918;-59
2022/12/04 11:31:39;;;;;;;;;;;1.70;99.90;;;;;;5024465;28;19917;-59
2022/12/04 11:34:07;;;;;;;;;;;1.70;99.90;;;;;;5026152;28;19918;-57
2022/12/04 11:36:33;;;;;;;;;;;1.80;99.90;;;;;;5025410;28;19917;-59
2022/12/04 11:39:11;;;;;;;;;;;1.80;99.90;;;;;;5013952;28;19918;-56
2022/12/04 11:41:37;;;;;;;;;;;1.80;99.90;;;;;;5022264;28;19920;-58
2022/12/04 11:44:18;;;;;;;;;;;1.80;99.90;;;;;;5027651;28;19928;-58
2022/12/04 11:46:50;;;;;;;;;;;1.90;99.90;;;;;;5023298;28;20409;-55
2022/12/04 11:49:20;;;;;;;;;;;1.90;99.90;;;;;;5029289;28;20484;-57
2022/12/04 11:52:10;;;;;;;;;;;1.90;99.90;;;;;;5024031;28;19917;-58
2022/12/04 11:54:36;;;;;;;;;;;1.90;99.90;;;;;;5015212;28;20290;-58
2022/12/04 11:57:01;;;;;;;;;;;2.00;99.90;;;;;;5022807;28;19909;-57
2022/12/04 11:59:27;;;;;;;;;;;2.00;99.90;;;;;;5025564;28;20413;-55
2022/12/04 12:02:01;;;;;;;;;;;2.00;99.90;;;;;;5026977;28;20015;-56
2022/12/04 12:04:34;;;;;;;;;;;2.00;99.90;;;;;;5024889;28;19988;-59
2022/12/04 12:07:12;;;;;;;;;;;2.10;99.90;;;;;;5012969;28;19920;-54
2022/12/04 12:09:58;;;;;;;;;;;2.10;99.90;;;;;;5023034;28;19913;-55
2022/12/04 12:12:26;;;;;;;;;;;2.10;99.90;;;;;;5028924;28;20402;-59
2022/12/04 12:14:51;;;;;;;;;;;2.10;99.90;;;;;;5017494;28;19964;-59
2022/12/04 12:17:22;;;;;;;;;;;2.10;99.90;;;;;;5018016;28;19913;-57
2022/12/04 12:20:02;;;;;;;;;;;2.20;99.90;;;;;;5018701;28;19925;-59
2022/12/04 12:22:44;;;;;;;;;;;2.20;99.90;;;;;;4993818;28;21249;-60
2022/12/04 12:25:09;;;;;;;;;;;2.20;99.90;;;;;;4996944;28;19914;-57
2022/12/04 12:27:53;;;;;;;;;;;2.30;99.90;;;;;;5004401;28;19965;-55
2022/12/04 12:30:22;;;;;;;;;;;2.30;99.90;;;;;;4995397;28;19909;-56
2022/12/04 12:32:59;;;;;;;;;;;2.40;99.90;;;;;;5008660;28;20380;-59
2022/12/04 12:35:37;;;;;;;;;;;2.40;99.90;;;;;;4999637;28;19909;-55
2022/12/04 12:38:29;;;;;;;;;;;2.40;99.90;;;;;;5006304;28;19918;-57
2022/12/04 12:40:57;;;;;;;;;;;2.40;99.90;;;;;;5000471;28;19917;-57
2022/12/04 12:43:31;;;;;;;;;;;2.40;99.90;;;;;;5003559;28;19960;-55
2022/12/04 12:45:56;;;;;;;;;;;2.50;99.90;;;;;;5003432;28;20292;-59
2022/12/04 12:48:25;;;;;;;;;;;2.50;99.90;;;;;;5000840;28;19919;-55
2022/12/04 12:50:53;;;;;;;;;;;2.50;99.90;;;;;;5010359;28;19920;-57
2022/12/04 12:53:21;;;;;;;;;;;2.50;99.90;;;;;;4997799;28;19910;-57
2022/12/04 12:55:54;;;;;;;;;;;2.50;99.90;;;;;;5009803;28;19915;-59
2022/12/04 12:58:19;;;;;;;;;;;2.50;99.90;;;;;;4995535;28;19910;-57
2022/12/04 13:00:48;;;;;;;;;;;2.50;99.90;;;;;;4999577;28;19925;-59
2022/12/04 13:03:31;;;;;;;;;;;2.50;99.90;;;;;;5002103;28;20131;-57
2022/12/04 13:05:59;;;;;;;;;;;2.60;99.90;;;;;;4994029;28;20438;-58
2022/12/04 13:08:31;;;;;;;;;;;2.60;99.90;;;;;;5003252;28;19952;-58
2022/12/04 13:11:03;;;;;;;;;;;2.60;99.90;;;;;;5006590;28;19995;-58
2022/12/04 13:13:30;;;;;;;;;;;2.60;99.90;;;;;;5001522;28;20075;-59
2022/12/04 13:15:58;;;;;;;;;;;2.70;99.90;;;;;;5007361;28;19913;-58
2022/12/04 13:18:29;;;;;;;;;;;2.70;99.90;;;;;;4992715;28;20485;-59
2022/12/04 13:20:56;;;;;;;;;;;2.70;99.90;;;;;;5006302;28;20004;-55
2022/12/04 13:23:30;;;;;;;;;;;2.70;99.90;;;;;;5037368;23;20055;-66
2022/12/04 13:25:56;;;;;;;;;;;2.70;99.90;;;;;;5031979;28;19982;-63
2022/12/04 13:28:24;;;;;;;;;;;2.80;99.90;;;;;;5031594;28;20020;-64
2022/12/04 13:30:52;;;;;;;;;;;2.80;99.90;;;;;;5031912;28;19921;-64
2022/12/04 13:33:38;;;;;;;;;;;2.80;99.90;;;;;;5031424;28;19909;-63
2022/12/04 13:36:07;;;;;;;;;;;2.80;99.90;;;;;;5028536;28;19917;-64
2022/12/04 13:38:35;;;;;;;;;;;2.80;99.90;;;;;;5032386;28;19917;-64
2022/12/04 13:41:05;;;;;;;;;;;2.80;99.90;;;;;;5026058;28;19932;-64
2022/12/04 13:43:40;;;;;;;;;;;2.80;99.90;;;;;;5023677;28;19936;-64
2022/12/04 13:46:25;;;;;;;;;;;2.80;99.90;;;;;;5022045;28;19997;-63
2022/12/04 13:48:51;;;;;;;;;;;2.80;99.90;;;;;;5011957;28;20456;-63
2022/12/04 13:51:36;;;;;;;;;;;2.80;99.90;;;;;;5043416;28;19910;-64
2022/12/04 13:54:18;;;;;;;;;;;2.90;99.90;;;;;;5027489;28;19936;-63
2022/12/04 13:56:46;;;;;;;;;;;2.90;99.90;;;;;;5020139;28;19909;-62
2022/12/04 13:59:22;;;;;;;;;;;2.90;99.90;;;;;;5020512;28;20098;-63
2022/12/04 14:01:49;;;;;;;;;;;2.90;99.90;;;;;;5027605;28;19913;-65
2022/12/04 14:04:24;;;;;;;;;;;2.90;99.90;;;;;;5030349;28;19913;-62
2022/12/04 14:06:50;;;;;;;;;;;2.90;99.90;;;;;;5030802;28;19915;-63
2022/12/04 14:09:27;;;;;;;;;;;2.90;99.90;;;;;;5022623;28;19936;-63
2022/12/04 14:11:56;;;;;;;;;;;2.90;99.90;;;;;;5029758;28;20436;-63
2022/12/04 14:14:24;;;;;;;;;;;3.00;99.90;;;;;;5027157;28;19922;-62
2022/12/04 14:16:50;;;;;;;;;;;3.00;99.90;;;;;;5028176;28;19909;-63
2022/12/04 14:19:26;;;;;;;;;;;3.00;99.90;;;;;;5031323;28;19939;-62
2022/12/04 14:21:52;;;;;;;;;;;3.00;99.90;;;;;;5022449;28;19917;-64
2022/12/04 14:24:30;;;;;;;;;;;3.00;99.90;;;;;;5027597;28;19917;-63
2022/12/04 14:26:56;;;;;;;;;;;3.00;99.90;;;;;;5030366;28;20007;-63
2022/12/04 14:29:21;;;;;;;;;;;3.00;99.90;;;;;;5023289;28;20444;-63
2022/12/04 14:31:47;;;;;;;;;;;3.00;99.90;;;;;;5029797;28;19948;-64
2022/12/04 14:34:25;;;;;;;;;;;3.10;99.90;;;;;;5021756;28;19914;-62
2022/12/04 14:36:53;;;;;;;;;;;3.10;99.90;;;;;;5026102;28;19966;-62
2022/12/04 14:39:26;;;;;;;;;;;3.10;99.90;;;;;;5020120;28;19917;-64
2022/12/04 14:41:52;;;;;;;;;;;3.10;99.90;;;;;;5028357;28;19913;-63
2022/12/04 14:44:26;;;;;;;;;;;3.10;99.90;;;;;;5031206;28;19920;-63
2022/12/04 14:46:53;;;;;;;;;;;3.20;99.90;;;;;;5027316;28;19932;-61